createdAt,value
2023-05-22T00:01:06.558Z,99129.22
2023-05-22T00:03:33.345Z,99131.59
2023-05-22T00:06:00.100Z,99132.09
2023-05-22T00:08:29.613Z,99129.22
2023-05-22T00:10:57.023Z,99126.88
2023-05-22T00:13:23.820Z,99125.00
2023-05-22T00:15:50.287Z,99122.13
2023-05-22T00:18:17.245Z,99123.50
2023-05-22T00:20:46.310Z,99121.13
2023-05-22T00:23:15.519Z,99128.00
2023-05-22T00:25:42.257Z,99121.94
2023-05-22T00:28:09.100Z,99120.09
2023-05-22T00:30:37.343Z,99124.16
2023-05-22T00:33:04.333Z,99114.38
2023-05-22T00:35:31.206Z,99112.22
2023-05-22T00:37:57.691Z,99114.41
2023-05-22T00:40:24.762Z,99105.81
2023-05-22T00:42:51.254Z,99099.56
2023-05-22T00:45:18.040Z,99105.66
2023-05-22T00:47:44.553Z,99110.72
2023-05-22T00:50:12.349Z,99107.16
2023-05-22T00:52:42.456Z,99106.66
2023-05-22T00:55:10.534Z,99105.00
2023-05-22T00:57:40.266Z,99109.53
2023-05-22T01:00:10.937Z,99105.66
2023-05-22T01:02:37.850Z,99115.13
2023-05-22T01:05:11.285Z,99117.16
2023-05-22T01:07:38.198Z,99109.72
2023-05-22T01:10:06.155Z,99110.41
2023-05-22T01:12:32.616Z,99113.09
2023-05-22T01:15:09.183Z,99111.72
2023-05-22T01:17:41.940Z,99108.19
2023-05-22T01:20:14.216Z,99109.38
2023-05-22T01:22:43.912Z,99106.00
2023-05-22T01:25:26.178Z,99107.69
2023-05-22T01:27:52.923Z,99106.16
2023-05-22T01:30:38.020Z,99108.72
2023-05-22T01:33:07.884Z,99104.00
2023-05-22T01:35:37.373Z,99106.84
2023-05-22T01:38:04.365Z,99101.97
2023-05-22T01:40:31.662Z,99110.06
2023-05-22T01:42:58.744Z,99107.69
2023-05-22T01:45:26.354Z,99103.97
2023-05-22T01:47:52.888Z,99110.41
2023-05-22T01:50:21.106Z,99109.84
2023-05-22T01:53:11.629Z,99111.88
2023-05-22T01:56:05.622Z,99103.97
2023-05-22T01:59:00.185Z,99098.91
2023-05-22T02:01:31.246Z,99099.06
2023-05-22T02:03:58.323Z,99099.56
2023-05-22T02:06:32.177Z,99099.06
2023-05-22T02:08:59.867Z,99106.34
2023-05-22T02:11:29.345Z,99099.91
2023-05-22T02:13:57.297Z,99106.16
2023-05-22T02:16:24.681Z,99103.13
2023-05-22T02:18:54.116Z,99107.00
2023-05-22T02:21:22.302Z,99103.78
2023-05-22T02:23:49.195Z,99103.44
2023-05-22T02:26:15.788Z,99105.63
2023-05-22T02:28:44.320Z,99105.63
2023-05-22T02:31:10.995Z,99106.78
2023-05-22T02:33:38.138Z,99107.66
2023-05-22T02:36:04.896Z,99112.34
2023-05-22T02:38:31.326Z,99099.84
2023-05-22T02:40:57.907Z,99101.72
2023-05-22T02:43:24.347Z,99105.22
2023-05-22T02:45:51.232Z,99100.50
2023-05-22T02:48:18.229Z,99100.88
2023-05-22T02:50:48.967Z,99098.88
2023-05-22T02:53:17.110Z,99111.16
2023-05-22T02:55:43.584Z,99098.72
2023-05-22T02:58:12.097Z,99107.63
2023-05-22T03:00:38.918Z,99100.22
2023-05-22T03:03:06.924Z,99097.53
2023-05-22T03:05:33.743Z,99090.44
2023-05-22T03:08:00.460Z,99097.19
2023-05-22T03:10:27.125Z,99097.53
2023-05-22T03:12:54.144Z,99104.63
2023-05-22T03:15:20.862Z,99105.28
2023-05-22T03:17:47.790Z,99095.72
2023-05-22T03:20:16.745Z,99090.16
2023-05-22T03:22:44.411Z,99092.66
2023-05-22T03:25:10.984Z,99103.63
2023-05-22T03:27:39.664Z,99098.41
2023-05-22T03:30:07.266Z,99100.25
2023-05-22T03:32:37.500Z,99102.78
2023-05-22T03:35:05.193Z,99104.31
2023-05-22T03:37:31.653Z,99099.44
2023-05-22T03:39:58.665Z,99100.63
2023-05-22T03:42:25.366Z,99103.66
2023-05-22T03:44:52.107Z,99107.69
2023-05-22T03:47:18.859Z,99110.06
2023-05-22T03:49:45.759Z,99101.28
2023-05-22T03:52:12.719Z,99098.25
2023-05-22T03:54:39.212Z,99097.56
2023-05-22T03:57:06.170Z,99101.94
2023-05-22T03:59:32.614Z,99098.41
2023-05-22T04:02:01.243Z,99094.72
2023-05-22T04:04:28.405Z,99096.75
2023-05-22T04:06:57.958Z,99101.59
2023-05-22T04:09:27.743Z,99101.59
2023-05-22T04:11:54.236Z,99101.75
2023-05-22T04:14:21.192Z,99109.50
2023-05-22T04:16:50.281Z,99117.72
2023-05-22T04:19:18.058Z,99111.97
2023-05-22T04:21:45.490Z,99123.09
2023-05-22T04:24:11.898Z,99127.66
2023-05-22T04:26:41.698Z,99132.00
2023-05-22T04:29:10.427Z,99126.75
2023-05-22T04:31:37.364Z,99128.63
2023-05-22T04:34:04.179Z,99133.28
2023-05-22T04:36:34.322Z,99143.44
2023-05-22T04:39:02.438Z,99137.88
2023-05-22T04:41:28.904Z,99138.69
2023-05-22T04:43:55.382Z,99141.72
2023-05-22T04:46:22.425Z,99148.97
2023-05-22T04:48:49.583Z,99148.63
2023-05-22T04:51:16.617Z,99151.28
2023-05-22T04:53:43.171Z,99158.88
2023-05-22T04:56:11.765Z,99163.94
2023-05-22T04:58:40.219Z,99153.59
2023-05-22T05:01:06.698Z,99154.94
2023-05-22T05:03:34.597Z,99166.03
2023-05-22T05:06:01.230Z,99151.84
2023-05-22T05:08:27.805Z,99152.16
2023-05-22T05:10:54.260Z,99156.81
2023-05-22T05:13:20.767Z,99163.75
2023-05-22T05:15:47.327Z,99167.13
2023-05-22T05:18:13.900Z,99159.47
2023-05-22T05:20:41.023Z,99158.78
2023-05-22T05:23:09.815Z,99160.75
2023-05-22T05:25:38.864Z,99160.22
2023-05-22T05:28:10.678Z,99161.75
2023-05-22T05:30:41.539Z,99156.50
2023-05-22T05:33:08.422Z,99151.56
2023-05-22T05:35:35.567Z,99157.63
2023-05-22T05:38:02.066Z,99159.59
2023-05-22T05:40:28.521Z,99151.88
2023-05-22T05:42:55.391Z,99159.91
2023-05-22T05:45:21.853Z,99149.16
2023-05-22T05:47:48.355Z,99158.59
2023-05-22T05:50:15.634Z,99160.00
2023-05-22T05:52:42.231Z,99162.69
2023-05-22T05:55:09.547Z,99155.94
2023-05-22T05:57:36.077Z,99160.28
2023-05-22T06:00:04.477Z,99153.53
2023-05-22T06:02:31.539Z,99161.00
2023-05-22T06:04:58.913Z,99158.59
2023-05-22T06:07:25.913Z,99167.38
2023-05-22T06:09:52.498Z,99164.25
2023-05-22T06:12:19.355Z,99167.06
2023-05-22T06:14:45.793Z,99171.56
2023-05-22T06:17:12.453Z,99160.72
2023-05-22T06:19:38.957Z,99162.38
2023-05-22T06:22:05.520Z,99170.81
2023-05-22T06:24:32.860Z,99163.03
2023-05-22T06:27:00.047Z,99164.28
2023-05-22T06:29:26.645Z,99163.34
2023-05-22T06:31:53.383Z,99164.34
2023-05-22T06:34:20.923Z,99167.81
2023-05-22T06:36:50.169Z,99163.84
2023-05-22T06:39:17.929Z,99168.69
2023-05-22T06:41:45.136Z,99170.56
2023-05-22T06:44:12.892Z,99159.25
2023-05-22T06:46:39.881Z,99170.84
2023-05-22T06:49:07.885Z,99163.38
2023-05-22T06:51:34.399Z,99164.88
2023-05-22T06:54:01.034Z,99165.81
2023-05-22T06:56:27.455Z,99170.88
2023-05-22T06:58:54.081Z,99165.22
2023-05-22T07:01:20.632Z,99164.22
2023-05-22T07:03:47.131Z,99174.69
2023-05-22T07:06:13.651Z,99165.50
2023-05-22T07:08:40.544Z,99171.50
2023-05-22T07:11:10.348Z,99168.31
2023-05-22T07:13:36.968Z,99171.59
2023-05-22T07:16:03.837Z,99174.88
2023-05-22T07:18:31.280Z,99172.44
2023-05-22T07:20:58.470Z,99177.09
2023-05-22T07:23:26.332Z,99181.13
2023-05-22T07:25:53.039Z,99173.84
2023-05-22T07:28:19.605Z,99187.56
2023-05-22T07:30:46.090Z,99181.47
2023-05-22T07:33:13.921Z,99182.59
2023-05-22T07:35:40.489Z,99185.31
2023-05-22T07:38:07.462Z,99174.13
2023-05-22T07:40:34.099Z,99178.47
2023-05-22T07:43:00.665Z,99175.97
2023-05-22T07:45:27.105Z,99165.56
2023-05-22T07:47:56.287Z,99164.88
2023-05-22T07:50:22.890Z,99175.44
2023-05-22T07:52:49.502Z,99171.06
2023-05-22T07:55:16.891Z,99173.75
2023-05-22T07:57:43.671Z,99175.22
2023-05-22T08:00:14.654Z,99179.38
2023-05-22T08:02:41.636Z,99183.88
2023-05-22T08:05:09.707Z,99181.94
2023-05-22T08:07:36.446Z,99178.56
2023-05-22T08:10:07.713Z,99182.84
2023-05-22T08:12:34.182Z,99177.09
2023-05-22T08:15:01.083Z,99167.59
2023-05-22T08:17:28.150Z,99178.91
2023-05-22T08:19:54.738Z,99175.75
2023-05-22T08:22:21.736Z,99169.66
2023-05-22T08:24:48.283Z,99164.09
2023-05-22T08:27:14.708Z,99172.94
2023-05-22T08:29:41.254Z,99167.88
2023-05-22T08:32:08.162Z,99159.81
2023-05-22T08:34:35.561Z,99163.81
2023-05-22T08:37:02.175Z,99160.72
2023-05-22T08:39:29.079Z,99154.06
2023-05-22T08:41:56.315Z,99160.22
2023-05-22T08:44:23.507Z,99150.47
2023-05-22T08:46:51.801Z,99152.09
2023-05-22T08:49:21.855Z,99157.59
2023-05-22T08:51:56.395Z,99154.81
2023-05-22T08:54:26.335Z,99162.56
2023-05-22T08:56:57.270Z,99159.06
2023-05-22T08:59:24.776Z,99151.56
2023-05-22T09:01:52.369Z,99141.78
2023-05-22T09:04:23.529Z,99148.91
2023-05-22T09:06:51.027Z,99148.31
2023-05-22T09:09:17.837Z,99139.16
2023-05-22T09:11:44.434Z,99141.44
2023-05-22T09:14:11.644Z,99148.34
2023-05-22T09:16:48.462Z,99134.78
2023-05-22T09:19:16.130Z,99138.13
2023-05-22T09:21:44.733Z,99142.13
2023-05-22T09:24:11.326Z,99133.53
2023-05-22T09:26:41.223Z,99134.78
2023-05-22T09:29:08.113Z,99138.38
2023-05-22T09:31:44.894Z,99142.53
2023-05-22T09:34:14.078Z,99138.56
2023-05-22T09:36:41.558Z,99134.16
2023-05-22T09:39:08.662Z,99128.03
2023-05-22T09:41:39.691Z,99125.38
2023-05-22T09:44:14.384Z,99124.50
2023-05-22T09:46:45.734Z,99123.41
2023-05-22T09:49:15.822Z,99123.53
2023-05-22T09:51:47.513Z,99124.63
2023-05-22T09:54:15.659Z,99119.72
2023-05-22T09:56:44.230Z,99104.59
2023-05-22T09:59:13.856Z,99108.66
2023-05-22T10:01:42.950Z,99113.03
2023-05-22T10:04:14.243Z,99113.72
2023-05-22T10:06:42.960Z,99107.94
2023-05-22T10:09:18.871Z,99103.63
2023-05-22T10:11:46.786Z,99110.59
2023-05-22T10:14:13.446Z,99106.59
2023-05-22T10:16:41.340Z,99102.75
2023-05-22T10:19:08.329Z,99109.59
2023-05-22T10:21:36.892Z,99096.88
2023-05-22T10:24:03.660Z,99094.25
2023-05-22T10:26:31.402Z,99088.06
2023-05-22T10:29:18.820Z,99090.56
2023-05-22T10:32:21.628Z,99099.97
2023-05-22T10:34:56.366Z,99086.69
2023-05-22T10:38:01.152Z,99100.25
2023-05-22T10:40:32.679Z,99091.91
2023-05-22T10:43:02.195Z,99085.25
2023-05-22T10:45:30.041Z,99098.72
2023-05-22T10:48:07.141Z,99087.91
2023-05-22T10:50:35.371Z,99095.88
2023-05-22T10:53:21.547Z,99085.13
2023-05-22T10:55:56.738Z,99098.47
2023-05-22T10:58:38.275Z,99084.34
2023-05-22T11:01:12.727Z,99094.19
2023-05-22T11:03:59.259Z,99086.97
2023-05-22T11:06:44.006Z,99093.81
2023-05-22T11:09:21.813Z,99096.19
2023-05-22T11:12:08.392Z,99094.66
2023-05-22T11:14:36.792Z,99079.84
2023-05-22T11:17:03.747Z,99096.09
2023-05-22T11:19:30.504Z,99082.31
2023-05-22T11:22:01.744Z,99083.84
2023-05-22T11:24:34.095Z,99084.97
2023-05-22T11:27:02.428Z,99086.47
2023-05-22T11:29:29.439Z,99082.41
2023-05-22T11:31:58.167Z,99089.56
2023-05-22T11:34:25.576Z,99070.88
2023-05-22T11:37:00.430Z,99078.25
2023-05-22T11:39:27.075Z,99068.44
2023-05-22T11:41:53.578Z,99063.41
2023-05-22T11:44:21.611Z,99062.66
2023-05-22T11:46:48.320Z,99062.59
2023-05-22T11:49:15.083Z,99060.44
2023-05-22T11:51:41.985Z,99063.53
2023-05-22T11:54:08.481Z,99061.63
2023-05-22T11:56:35.000Z,99062.00
2023-05-22T11:59:01.515Z,99055.81
2023-05-22T12:01:28.277Z,99053.22
2023-05-22T12:03:54.927Z,99063.84
2023-05-22T12:06:21.978Z,99060.09
2023-05-22T12:08:48.505Z,99062.97
2023-05-22T12:11:15.176Z,99051.00
2023-05-22T12:13:41.702Z,99045.47
2023-05-22T12:16:19.997Z,99044.88
2023-05-22T12:18:46.630Z,99037.38
2023-05-22T12:21:13.237Z,99042.16
2023-05-22T12:23:49.797Z,99045.03
2023-05-22T12:26:16.885Z,99046.88
2023-05-22T12:28:44.044Z,99040.72
2023-05-22T12:31:10.513Z,99045.44
2023-05-22T12:33:40.040Z,99041.19
2023-05-22T12:36:10.533Z,99044.19
2023-05-22T12:38:38.634Z,99042.50
2023-05-22T12:41:05.746Z,99048.34
2023-05-22T12:43:32.949Z,99042.97
2023-05-22T12:46:01.042Z,99038.50
2023-05-22T12:48:29.234Z,99032.13
2023-05-22T12:50:55.830Z,99040.66
2023-05-22T12:53:22.290Z,99043.25
2023-05-22T12:55:49.267Z,99047.94
2023-05-22T12:58:15.899Z,99043.63
2023-05-22T13:00:42.493Z,99044.09
2023-05-22T13:03:09.210Z,99045.44
2023-05-22T13:05:36.206Z,99039.81
2023-05-22T13:08:02.792Z,99032.66
2023-05-22T13:10:30.385Z,99042.47
2023-05-22T13:12:57.038Z,99041.31
2023-05-22T13:15:23.559Z,99037.69
2023-05-22T13:17:50.058Z,99039.59
2023-05-22T13:20:16.603Z,99048.78
2023-05-22T13:22:43.068Z,99044.34
2023-05-22T13:25:10.153Z,99029.88
2023-05-22T13:27:36.642Z,99049.13
2023-05-22T13:30:03.334Z,99030.16
2023-05-22T13:32:30.390Z,99035.63
2023-05-22T13:34:56.852Z,99045.69
2023-05-22T13:37:23.892Z,99037.44
2023-05-22T13:39:50.606Z,99041.97
2023-05-22T13:42:17.132Z,99040.78
2023-05-22T13:44:43.629Z,99051.06
2023-05-22T13:47:10.693Z,99042.66
2023-05-22T13:49:37.220Z,99059.53
2023-05-22T13:52:03.785Z,99054.56
2023-05-22T13:54:30.396Z,99058.16
2023-05-22T13:56:57.856Z,99053.53
2023-05-22T13:59:24.533Z,99053.28
2023-05-22T14:01:51.019Z,99045.91
2023-05-22T14:04:18.013Z,99043.63
2023-05-22T14:06:45.136Z,99036.69
2023-05-22T14:09:12.177Z,99050.03
2023-05-22T14:11:39.098Z,99038.69
2023-05-22T14:14:05.887Z,99036.44
2023-05-22T14:16:32.430Z,99036.22
2023-05-22T14:19:00.909Z,99042.31
2023-05-22T14:21:27.833Z,99029.22
2023-05-22T14:23:54.794Z,99030.53
2023-05-22T14:26:21.390Z,99031.72
2023-05-22T14:28:48.029Z,99028.84
2023-05-22T14:31:14.786Z,99031.78
2023-05-22T14:33:41.622Z,99026.81
2023-05-22T14:36:08.266Z,99031.38
2023-05-22T14:38:35.273Z,99027.56
2023-05-22T14:41:02.039Z,99030.53
2023-05-22T14:43:28.572Z,99019.59
2023-05-22T14:45:56.969Z,99016.50
2023-05-22T14:48:26.188Z,99019.69
2023-05-22T14:50:54.068Z,99023.47
2023-05-22T14:53:20.935Z,99016.50
2023-05-22T14:55:47.559Z,99022.19
2023-05-22T14:58:14.662Z,99018.69
2023-05-22T15:00:42.701Z,99022.78
2023-05-22T15:03:09.731Z,99017.06
2023-05-22T15:05:36.289Z,99017.91
2023-05-22T15:08:03.212Z,99014.34
2023-05-22T15:10:29.739Z,99008.50
2023-05-22T15:12:56.901Z,99012.06
2023-05-22T15:15:23.458Z,99008.75
2023-05-22T15:17:50.124Z,99014.91
2023-05-22T15:20:16.935Z,99011.59
2023-05-22T15:22:43.734Z,99006.69
2023-05-22T15:25:14.650Z,99003.16
2023-05-22T15:27:41.620Z,98996.25
2023-05-22T15:30:12.576Z,98994.31
2023-05-22T15:32:39.398Z,98985.38
2023-05-22T15:35:07.587Z,98979.06
2023-05-22T15:37:34.512Z,98980.28
2023-05-22T15:40:02.122Z,98992.41
2023-05-22T15:42:28.780Z,98981.22
2023-05-22T15:44:55.982Z,98986.00
2023-05-22T15:47:22.499Z,98985.00
2023-05-22T15:49:49.085Z,98978.00
2023-05-22T15:52:15.825Z,98977.53
2023-05-22T15:54:42.799Z,98980.88
2023-05-22T15:57:09.689Z,98988.00
2023-05-22T15:59:36.650Z,98985.75
2023-05-22T16:02:03.313Z,98999.44
2023-05-22T16:04:29.867Z,99001.13
2023-05-22T16:06:56.716Z,98999.28
2023-05-22T16:09:23.230Z,99000.81
2023-05-22T16:11:50.073Z,99006.72
2023-05-22T16:14:16.514Z,99005.44
2023-05-22T16:16:44.277Z,98998.69
2023-05-22T16:19:11.764Z,98998.25
2023-05-22T16:21:38.738Z,98994.94
2023-05-22T16:24:07.284Z,99004.13
2023-05-22T16:26:33.785Z,99007.78
2023-05-22T16:29:00.322Z,99016.63
2023-05-22T16:31:27.426Z,99015.50
2023-05-22T16:33:54.167Z,99010.47
2023-05-22T16:36:21.306Z,99018.31
2023-05-22T16:38:47.871Z,99014.50
2023-05-22T16:41:16.824Z,99010.88
2023-05-22T16:43:43.293Z,99020.91
2023-05-22T16:46:09.857Z,99019.16
2023-05-22T16:48:36.810Z,99022.94
2023-05-22T16:51:03.406Z,99025.00
2023-05-22T16:53:30.061Z,99019.03
2023-05-22T16:55:56.691Z,99027.94
2023-05-22T16:58:23.343Z,99034.69
2023-05-22T17:00:50.072Z,99034.31
2023-05-22T17:03:17.109Z,99032.72
2023-05-22T17:05:43.860Z,99048.34
2023-05-22T17:08:10.777Z,99044.41
2023-05-22T17:10:37.283Z,99041.78
2023-05-22T17:13:04.290Z,99047.84
2023-05-22T17:15:31.410Z,99054.19
2023-05-22T17:17:57.947Z,99049.56
2023-05-22T17:20:25.111Z,99052.84
2023-05-22T17:22:52.380Z,99054.63
2023-05-22T17:25:18.974Z,99058.63
2023-05-22T17:27:45.410Z,99057.63
2023-05-22T17:30:12.290Z,99060.09
2023-05-22T17:32:39.204Z,99063.22
2023-05-22T17:35:06.905Z,99071.97
2023-05-22T17:37:34.167Z,99077.88
2023-05-22T17:40:00.811Z,99078.22
2023-05-22T17:42:27.761Z,99094.81
2023-05-22T17:44:54.293Z,99095.41
2023-05-22T17:47:20.772Z,99086.16
2023-05-22T17:49:48.433Z,99085.56
2023-05-22T17:52:14.914Z,99094.84
2023-05-22T17:54:41.836Z,99086.91
2023-05-22T17:57:08.488Z,99101.44
2023-05-22T17:59:36.344Z,99105.00
2023-05-22T18:02:04.329Z,99110.88
2023-05-22T18:04:31.264Z,99110.44
2023-05-22T18:06:57.706Z,99115.97
2023-05-22T18:09:24.350Z,99116.81
2023-05-22T18:11:52.254Z,99127.09
2023-05-22T18:14:18.743Z,99126.50
2023-05-22T18:16:45.775Z,99125.25
2023-05-22T18:19:12.476Z,99126.97
2023-05-22T18:21:39.002Z,99129.06
2023-05-22T18:24:07.176Z,99131.59
2023-05-22T18:26:33.590Z,99137.63
2023-05-22T18:29:00.021Z,99135.81
2023-05-22T18:31:26.701Z,99133.09
2023-05-22T18:33:53.465Z,99147.56
2023-05-22T18:36:19.992Z,99146.97
2023-05-22T18:38:46.578Z,99145.47
2023-05-22T18:41:13.499Z,99146.34
2023-05-22T18:43:40.186Z,99148.41
2023-05-22T18:46:06.725Z,99151.94
2023-05-22T18:48:33.402Z,99155.91
2023-05-22T18:51:00.698Z,99160.09
2023-05-22T18:53:27.670Z,99169.09
2023-05-22T18:55:54.300Z,99175.19
2023-05-22T18:58:21.209Z,99175.16
2023-05-22T19:00:48.421Z,99174.53
2023-05-22T19:03:15.032Z,99170.72
2023-05-22T19:05:41.829Z,99165.50
2023-05-22T19:08:08.288Z,99169.28
2023-05-22T19:10:35.052Z,99155.06
2023-05-22T19:13:01.591Z,99167.13
2023-05-22T19:15:28.121Z,99173.00
2023-05-22T19:17:54.716Z,99174.84
2023-05-22T19:20:23.596Z,99182.13
2023-05-22T19:22:51.288Z,99183.81
2023-05-22T19:25:18.486Z,99181.72
2023-05-22T19:27:46.015Z,99196.75
2023-05-22T19:30:15.604Z,99195.44
2023-05-22T19:32:43.876Z,99198.47
2023-05-22T19:35:11.328Z,99208.25
2023-05-22T19:37:38.141Z,99214.34
2023-05-22T19:40:06.242Z,99222.06
2023-05-22T19:42:33.026Z,99225.41
2023-05-22T19:45:02.985Z,99220.75
2023-05-22T19:47:29.527Z,99223.22
2023-05-22T19:49:56.100Z,99227.44
2023-05-22T19:52:23.144Z,99227.00
2023-05-22T19:54:49.667Z,99235.78
2023-05-22T19:57:16.109Z,99231.38
2023-05-22T19:59:42.956Z,99233.84
2023-05-22T20:02:09.586Z,99235.09
2023-05-22T20:04:36.455Z,99236.06
2023-05-22T20:07:03.957Z,99236.44
2023-05-22T20:09:30.507Z,99239.34
2023-05-22T20:11:56.964Z,99244.78
2023-05-22T20:14:23.429Z,99241.19
2023-05-22T20:16:51.199Z,99241.19
2023-05-22T20:19:18.034Z,99237.09
2023-05-22T20:21:44.685Z,99244.72
2023-05-22T20:24:20.725Z,99248.50
2023-05-22T20:26:47.516Z,99248.31
2023-05-22T20:29:14.776Z,99246.72
2023-05-22T20:31:41.456Z,99244.78
2023-05-22T20:34:09.537Z,99253.13
2023-05-22T20:36:36.487Z,99261.44
2023-05-22T20:39:03.672Z,99261.56
2023-05-22T20:41:30.208Z,99260.56
2023-05-22T20:43:58.425Z,99264.41
2023-05-22T20:46:26.702Z,99260.78
2023-05-22T20:48:53.497Z,99256.59
2023-05-22T20:51:26.567Z,99260.25
2023-05-22T20:53:53.979Z,99263.13
2023-05-22T20:56:21.318Z,99267.91
2023-05-22T20:58:47.748Z,99271.69
2023-05-22T21:01:14.351Z,99275.59
2023-05-22T21:03:40.864Z,99280.56
2023-05-22T21:06:07.622Z,99282.47
2023-05-22T21:08:34.111Z,99286.66
2023-05-22T21:11:00.684Z,99286.47
2023-05-22T21:13:27.192Z,99296.94
2023-05-22T21:15:53.929Z,99290.41
2023-05-22T21:18:20.526Z,99296.75
2023-05-22T21:20:47.294Z,99300.91
2023-05-22T21:23:14.129Z,99292.94
2023-05-22T21:25:43.068Z,99293.31
2023-05-22T21:28:09.582Z,99293.88
2023-05-22T21:30:36.150Z,99301.03
2023-05-22T21:33:03.155Z,99301.81
2023-05-22T21:35:29.670Z,99298.44
2023-05-22T21:37:56.259Z,99298.91
2023-05-22T21:40:22.840Z,99307.34
2023-05-22T21:42:49.404Z,99301.63
2023-05-22T21:45:15.920Z,99309.50
2023-05-22T21:47:42.496Z,99305.00
2023-05-22T21:50:09.948Z,99307.44
2023-05-22T21:52:36.390Z,99311.19
2023-05-22T21:55:02.967Z,99309.22
2023-05-22T21:57:29.852Z,99309.66
2023-05-22T21:59:56.890Z,99314.63
2023-05-22T22:02:23.494Z,99318.75
2023-05-22T22:04:50.003Z,99324.84
2023-05-22T22:07:16.764Z,99321.66
2023-05-22T22:09:43.219Z,99320.41
2023-05-22T22:12:09.968Z,99315.69
2023-05-22T22:14:36.492Z,99309.97
2023-05-22T22:17:05.959Z,99321.47
2023-05-22T22:19:34.369Z,99320.00
2023-05-22T22:22:01.562Z,99315.81
2023-05-22T22:24:28.223Z,99315.06
2023-05-22T22:26:54.909Z,99324.84
2023-05-22T22:29:21.743Z,99327.19
2023-05-22T22:31:48.426Z,99336.34
2023-05-22T22:34:14.965Z,99333.28
2023-05-22T22:36:41.897Z,99328.50
2023-05-22T22:39:08.718Z,99328.94
2023-05-22T22:41:35.152Z,99319.97
2023-05-22T22:44:01.973Z,99323.22
2023-05-22T22:46:28.939Z,99330.41
2023-05-22T22:48:55.616Z,99327.69
2023-05-22T22:51:22.406Z,99325.56
2023-05-22T22:53:48.858Z,99336.28
2023-05-22T22:56:15.885Z,99326.75
2023-05-22T22:58:42.372Z,99344.47
2023-05-22T23:01:08.859Z,99338.56
2023-05-22T23:03:36.317Z,99341.47
2023-05-22T23:06:02.839Z,99345.91
2023-05-22T23:08:29.324Z,99352.53
2023-05-22T23:10:56.016Z,99351.09
2023-05-22T23:13:22.853Z,99352.47
2023-05-22T23:15:49.539Z,99348.13
2023-05-22T23:18:16.264Z,99347.47
2023-05-22T23:20:42.741Z,99346.94
2023-05-22T23:23:09.162Z,99343.75
2023-05-22T23:25:36.049Z,99344.28
2023-05-22T23:28:02.595Z,99350.53
2023-05-22T23:30:29.243Z,99348.19
2023-05-22T23:32:55.670Z,99355.28
2023-05-22T23:35:22.405Z,99355.84
2023-05-22T23:37:49.418Z,99354.31
2023-05-22T23:40:16.046Z,99351.50
2023-05-22T23:42:42.842Z,99360.78
2023-05-22T23:45:10.237Z,99354.03
2023-05-22T23:47:36.720Z,99365.41
2023-05-22T23:50:03.874Z,99358.47
2023-05-22T23:52:30.763Z,99361.69
2023-05-22T23:54:57.184Z,99357.81
2023-05-22T23:57:23.726Z,99362.41
2023-05-22T23:59:50.834Z,99358.88
